Agapovka, Russia
Current Conditions -  °F | °C
As of 12:30 PM on Thursday 23 Oct 2014 (Local Time) from USCM Reporting Station
Light Snow Light Snow  
Wind Chill: 13°   Ceiling: 2600
Heat Index: 25°   Visibility: 5mi
Dew Point: 14°   Wind: 13mph
Humidity: 64%   Direction: 340°NNW
Pressure: 29.62"   Gusts: NA
Location:  53.3°N, 59.14°E
Report Text: USCM 230630Z 34006MPS 8000 -SN BKN026 M04/M10 Q1003 NOSIG01090065 RMK QFE714
Loading
Personal Weather Stations






























Interactive Weather Map
Tropical Storm Tracking
New forecast layout! Learn more

10-Day Weather Forecast

Advertisements
Track Severe Weather on mobile